createdAt,value
2022-10-20T00:01:08.726Z,1.45
2022-10-20T00:03:35.735Z,1.30
2022-10-20T00:06:16.939Z,1.37
2022-10-20T00:08:44.563Z,1.40
2022-10-20T00:11:13.474Z,1.40
2022-10-20T00:13:41.174Z,1.48
2022-10-20T00:16:08.474Z,1.70
2022-10-20T00:18:35.675Z,1.67
2022-10-20T00:21:07.405Z,1.60
2022-10-20T00:23:34.403Z,1.70
2022-10-20T00:26:07.594Z,1.55
2022-10-20T00:28:35.298Z,1.48
2022-10-20T00:31:02.353Z,1.87
2022-10-20T00:33:29.314Z,1.73
2022-10-20T00:36:02.136Z,1.85
2022-10-20T00:38:29.226Z,1.92
2022-10-20T00:40:56.220Z,2.40
2022-10-20T00:43:23.432Z,2.05
2022-10-20T00:45:56.622Z,1.92
2022-10-20T00:48:27.023Z,1.67
2022-10-20T00:50:55.563Z,2.00
2022-10-20T00:53:24.213Z,2.00
2022-10-20T00:55:52.531Z,2.40
2022-10-20T00:58:19.915Z,2.58
2022-10-20T01:00:48.988Z,2.60
2022-10-20T01:03:26.619Z,2.87
2022-10-20T01:05:53.597Z,2.78
2022-10-20T01:08:20.484Z,2.92
2022-10-20T01:11:07.144Z,2.50
2022-10-20T01:13:51.987Z,2.72
2022-10-20T01:16:54.508Z,2.78
2022-10-20T01:19:43.140Z,3.00
2022-10-20T01:22:25.234Z,3.37
2022-10-20T01:25:04.192Z,3.00
2022-10-20T01:27:37.983Z,2.75
2022-10-20T01:30:07.544Z,3.55
2022-10-20T01:33:02.090Z,3.22
2022-10-20T01:35:42.036Z,3.08
2022-10-20T01:38:16.604Z,2.95
2022-10-20T01:40:50.296Z,3.60
2022-10-20T01:43:19.864Z,3.10
2022-10-20T01:45:49.890Z,3.45
2022-10-20T01:48:20.284Z,2.97
2022-10-20T01:50:47.908Z,2.90
2022-10-20T01:53:15.134Z,2.78
2022-10-20T01:55:42.065Z,2.60
2022-10-20T01:58:16.596Z,2.80
2022-10-20T02:00:45.366Z,3.10
2022-10-20T02:03:32.324Z,2.87
2022-10-20T02:06:08.853Z,3.20
2022-10-20T02:08:48.746Z,3.10
2022-10-20T02:11:30.957Z,3.12
2022-10-20T02:13:58.422Z,3.10
2022-10-20T02:16:34.770Z,3.17
2022-10-20T02:19:02.506Z,3.85
2022-10-20T02:21:29.403Z,3.28
2022-10-20T02:23:57.377Z,3.60
2022-10-20T02:26:25.697Z,3.40
2022-10-20T02:28:59.675Z,3.08
2022-10-20T02:31:26.808Z,3.55
2022-10-20T02:33:55.632Z,2.80
2022-10-20T02:36:26.332Z,3.53
2022-10-20T02:38:53.380Z,2.97
2022-10-20T02:41:20.267Z,3.10
2022-10-20T02:43:47.157Z,2.90
2022-10-20T02:48:45.879Z,2.83
2022-10-20T02:51:13.470Z,2.95
2022-10-20T02:53:40.398Z,3.22
2022-10-20T02:56:08.395Z,2.90
2022-10-20T02:58:35.410Z,3.08
2022-10-20T03:01:02.947Z,2.92
2022-10-20T03:03:29.890Z,3.25
2022-10-20T03:05:56.861Z,3.00
2022-10-20T03:08:23.805Z,3.05
2022-10-20T03:10:50.672Z,3.20
2022-10-20T03:13:17.559Z,3.17
2022-10-20T03:15:44.444Z,2.72
2022-10-20T03:18:11.335Z,2.72
2022-10-20T03:20:38.206Z,2.70
2022-10-20T03:25:33.824Z,2.50
2022-10-20T03:28:00.707Z,2.80
2022-10-20T03:32:54.754Z,2.67
2022-10-20T03:35:21.619Z,2.92
2022-10-20T03:40:15.277Z,3.05
2022-10-20T03:42:42.191Z,3.10
2022-10-20T03:45:09.461Z,2.87
2022-10-20T03:47:36.348Z,2.95
2022-10-20T03:52:36.832Z,2.92
2022-10-20T03:55:04.284Z,2.87
2022-10-20T03:57:31.179Z,3.30
2022-10-20T03:59:58.037Z,2.85
2022-10-20T04:05:00.458Z,3.08
2022-10-20T04:07:27.387Z,2.90
2022-10-20T04:09:54.342Z,3.30
2022-10-20T04:12:21.165Z,2.75
2022-10-20T04:17:15.874Z,2.87
2022-10-20T04:19:42.757Z,3.12
2022-10-20T04:24:36.367Z,3.05
2022-10-20T04:27:03.739Z,3.08
2022-10-20T04:29:31.255Z,3.05
2022-10-20T04:31:58.273Z,2.83
2022-10-20T04:34:39.220Z,2.78
2022-10-20T04:37:06.083Z,2.60
2022-10-20T04:42:00.137Z,2.72
2022-10-20T04:44:27.034Z,2.65
2022-10-20T04:46:56.772Z,2.28
2022-10-20T04:49:23.780Z,2.62
2022-10-20T04:51:50.677Z,2.72
2022-10-20T04:54:18.628Z,2.60
2022-10-20T04:56:45.524Z,2.78
2022-10-20T04:59:13.688Z,2.58
2022-10-20T05:01:41.115Z,3.00
2022-10-20T05:04:08.032Z,3.05
2022-10-20T05:09:04.008Z,2.60
2022-10-20T05:11:31.987Z,3.30
2022-10-20T05:13:58.849Z,3.00
2022-10-20T05:18:53.917Z,2.70
2022-10-20T05:21:23.361Z,3.12
2022-10-20T05:23:56.572Z,3.10
2022-10-20T05:26:23.792Z,3.33
2022-10-20T05:28:51.676Z,3.60
2022-10-20T05:31:20.424Z,3.15
2022-10-20T05:33:51.606Z,2.60
2022-10-20T05:36:22.700Z,2.95
2022-10-20T05:38:52.239Z,3.10
2022-10-20T05:41:21.349Z,3.47
2022-10-20T05:43:50.187Z,2.90
2022-10-20T05:46:22.018Z,2.90
2022-10-20T05:48:48.908Z,2.97
2022-10-20T05:53:44.134Z,2.55
2022-10-20T05:56:14.546Z,3.25
2022-10-20T05:58:43.996Z,2.30
2022-10-20T06:01:23.980Z,2.62
2022-10-20T06:03:54.138Z,2.65
2022-10-20T06:06:22.616Z,2.75
2022-10-20T06:08:51.044Z,2.25
2022-10-20T06:11:21.815Z,2.42
2022-10-20T06:13:51.911Z,2.78
2022-10-20T06:16:23.009Z,2.60
2022-10-20T06:18:50.452Z,3.78
2022-10-20T06:21:21.995Z,4.57
2022-10-20T06:23:49.575Z,2.45
2022-10-20T06:26:18.726Z,2.30
2022-10-20T06:28:47.261Z,2.53
2022-10-20T06:31:19.617Z,1.95
2022-10-20T06:33:47.158Z,2.30
2022-10-20T06:36:14.692Z,2.40
2022-10-20T06:38:42.265Z,2.40
2022-10-20T06:41:12.254Z,2.33
2022-10-20T06:43:39.197Z,2.40
2022-10-20T06:46:08.750Z,2.45
2022-10-20T06:48:36.175Z,2.78
2022-10-20T06:51:08.792Z,2.60
2022-10-20T06:53:36.482Z,2.53
2022-10-20T06:56:09.250Z,2.22
2022-10-20T06:58:37.592Z,2.37
2022-10-20T07:01:11.075Z,2.80
2022-10-20T07:03:39.063Z,2.67
2022-10-20T07:06:06.945Z,2.53
2022-10-20T07:08:35.293Z,2.95
2022-10-20T07:11:03.257Z,2.75
2022-10-20T07:13:30.702Z,3.15
2022-10-20T07:15:58.902Z,2.75
2022-10-20T07:18:27.149Z,2.70
2022-10-20T07:21:02.394Z,2.40
2022-10-20T07:23:31.059Z,2.60
2022-10-20T07:26:11.293Z,2.75
2022-10-20T07:28:39.864Z,2.83
2022-10-20T07:31:08.855Z,2.75
2022-10-20T07:33:35.799Z,2.92
2022-10-20T07:36:03.051Z,2.90
2022-10-20T07:38:29.880Z,2.80
2022-10-20T07:41:03.109Z,3.08
2022-10-20T07:43:30.389Z,3.83
2022-10-20T07:45:58.247Z,2.92
2022-10-20T07:48:25.125Z,2.72
2022-10-20T07:50:54.754Z,2.62
2022-10-20T07:53:21.607Z,2.85
2022-10-20T07:55:48.479Z,2.87
2022-10-20T07:58:18.555Z,2.78
2022-10-20T08:00:45.835Z,2.53
2022-10-20T08:03:12.702Z,2.55
2022-10-20T08:05:39.541Z,2.55
2022-10-20T08:08:06.468Z,3.03
2022-10-20T08:10:33.299Z,2.72
2022-10-20T08:13:05.369Z,3.05
2022-10-20T08:15:37.130Z,2.80
2022-10-20T08:18:06.352Z,3.03
2022-10-20T08:20:35.825Z,3.10
2022-10-20T08:23:07.478Z,2.72
2022-10-20T08:25:40.051Z,2.72
2022-10-20T08:28:12.650Z,3.40
2022-10-20T08:30:43.906Z,3.10
2022-10-20T08:33:10.923Z,2.55
2022-10-20T08:35:37.765Z,2.90
2022-10-20T08:38:06.963Z,2.90
2022-10-20T08:40:35.076Z,2.30
2022-10-20T08:43:01.949Z,2.95
2022-10-20T08:45:29.523Z,3.00
2022-10-20T08:47:57.901Z,2.42
2022-10-20T08:50:28.298Z,3.08
2022-10-20T08:52:58.174Z,3.25
2022-10-20T08:55:33.010Z,2.78
2022-10-20T08:58:10.754Z,2.80
2022-10-20T09:00:45.739Z,2.80
2022-10-20T09:03:24.662Z,2.45
2022-10-20T09:05:56.837Z,2.97
2022-10-20T09:08:26.969Z,2.70
2022-10-20T09:10:54.708Z,3.95
2022-10-20T09:13:27.065Z,2.53
2022-10-20T09:15:59.523Z,2.58
2022-10-20T09:18:26.581Z,2.40
2022-10-20T09:20:59.299Z,2.60
2022-10-20T09:23:47.138Z,2.75
2022-10-20T09:26:54.687Z,2.50
2022-10-20T09:29:35.871Z,2.92
2022-10-20T09:32:15.367Z,2.25
2022-10-20T09:34:49.648Z,2.97
2022-10-20T09:37:19.159Z,2.67
2022-10-20T09:39:58.759Z,2.35
2022-10-20T09:42:35.711Z,2.45
2022-10-20T09:47:46.521Z,2.50
2022-10-20T09:50:29.477Z,2.90
2022-10-20T09:52:56.730Z,3.00
2022-10-20T09:55:42.378Z,2.50
2022-10-20T09:58:27.189Z,2.67
2022-10-20T10:01:12.961Z,2.67
2022-10-20T10:03:45.251Z,2.45
2022-10-20T10:06:34.794Z,2.50
2022-10-20T10:09:02.616Z,2.60
2022-10-20T10:11:34.782Z,2.40
2022-10-20T10:14:02.389Z,2.60
2022-10-20T10:16:40.781Z,2.65
2022-10-20T10:19:08.238Z,2.50
2022-10-20T10:21:49.189Z,2.45
2022-10-20T10:24:43.274Z,2.70
2022-10-20T10:27:27.678Z,2.22
2022-10-20T10:29:55.905Z,2.37
2022-10-20T10:32:28.490Z,2.40
2022-10-20T10:35:05.166Z,2.40
2022-10-20T10:37:34.845Z,2.30
2022-10-20T10:40:05.665Z,2.12
2022-10-20T10:42:53.955Z,2.10
2022-10-20T10:45:36.700Z,2.30
2022-10-20T10:48:19.074Z,2.40
2022-10-20T10:51:00.888Z,2.17
2022-10-20T10:54:10.836Z,2.12
2022-10-20T10:56:57.321Z,2.30
2022-10-20T10:59:30.268Z,2.00
2022-10-20T11:02:18.545Z,2.05
2022-10-20T11:05:19.248Z,2.40
2022-10-20T11:07:46.037Z,2.08
2022-10-20T11:10:23.421Z,2.17
2022-10-20T11:13:15.171Z,2.08
2022-10-20T11:16:06.753Z,2.30
2022-10-20T11:18:45.395Z,2.30
2022-10-20T11:21:14.932Z,2.10
2022-10-20T11:23:53.953Z,2.42
2022-10-20T11:26:29.301Z,2.12
2022-10-20T11:28:57.250Z,2.30
2022-10-20T11:31:37.363Z,2.20
2022-10-20T11:34:15.051Z,2.08
2022-10-20T11:36:47.233Z,1.90
2022-10-20T11:39:45.556Z,1.90
2022-10-20T11:42:30.837Z,2.03
2022-10-20T11:45:00.551Z,2.35
2022-10-20T11:47:35.020Z,2.05
2022-10-20T11:50:05.868Z,1.80
2022-10-20T11:52:59.152Z,2.10
2022-10-20T11:55:38.243Z,1.90
2022-10-20T11:58:16.000Z,2.00
2022-10-20T12:00:59.546Z,1.70
2022-10-20T12:04:10.746Z,1.98
2022-10-20T12:07:07.246Z,1.98
2022-10-20T12:10:08.785Z,2.33
2022-10-20T12:12:53.739Z,1.95
2022-10-20T12:15:28.993Z,1.90
2022-10-20T12:18:19.116Z,1.98
2022-10-20T12:20:51.991Z,1.90
2022-10-20T12:23:51.963Z,1.65
2022-10-20T12:26:29.746Z,1.90
2022-10-20T12:28:57.538Z,2.20
2022-10-20T12:31:25.876Z,2.25
2022-10-20T12:33:55.392Z,2.10
2022-10-20T12:36:29.849Z,2.00
2022-10-20T12:39:29.257Z,1.83
2022-10-20T12:42:01.498Z,2.12
2022-10-20T12:44:32.707Z,1.90
2022-10-20T12:47:09.070Z,2.05
2022-10-20T12:49:39.140Z,1.80
2022-10-20T12:52:07.883Z,1.58
2022-10-20T12:54:41.167Z,2.05
2022-10-20T12:57:36.924Z,1.83
2022-10-20T13:00:28.541Z,1.85
2022-10-20T13:02:58.722Z,2.00
2022-10-20T13:05:28.332Z,1.98
2022-10-20T13:07:59.988Z,1.80
2022-10-20T13:10:36.748Z,2.00
2022-10-20T13:13:03.552Z,1.87
2022-10-20T13:15:34.991Z,1.62
2022-10-20T13:18:13.971Z,2.30
2022-10-20T13:20:44.590Z,1.90
2022-10-20T13:23:39.566Z,2.00
2022-10-20T13:26:17.969Z,1.92
2022-10-20T13:28:48.025Z,1.98
2022-10-20T13:31:17.288Z,1.80
2022-10-20T13:34:12.044Z,1.75
2022-10-20T13:37:03.855Z,1.60
2022-10-20T13:40:16.379Z,2.00
2022-10-20T13:43:10.477Z,1.80
2022-10-20T13:45:53.884Z,2.00
2022-10-20T13:48:42.211Z,2.15
2022-10-20T13:51:27.194Z,2.20
2022-10-20T13:53:56.818Z,2.90
2022-10-20T13:56:26.553Z,2.30
2022-10-20T13:59:05.677Z,2.47
2022-10-20T14:01:35.705Z,2.17
2022-10-20T14:04:02.616Z,2.87
2022-10-20T14:06:37.367Z,2.67
2022-10-20T14:09:17.817Z,2.30
2022-10-20T14:11:47.347Z,2.40
2022-10-20T14:14:16.902Z,2.50
2022-10-20T14:16:52.207Z,3.47
2022-10-20T14:19:27.839Z,3.03
2022-10-20T14:22:06.972Z,3.47
2022-10-20T14:24:37.133Z,4.57
2022-10-20T14:27:05.563Z,3.17
2022-10-20T14:29:35.417Z,4.35
2022-10-20T14:32:02.329Z,3.78
2022-10-20T14:34:31.833Z,3.28
2022-10-20T14:36:58.837Z,3.15
2022-10-20T14:39:36.325Z,6.00
2022-10-20T14:42:05.959Z,11.88
2022-10-20T14:44:32.966Z,8.70
2022-10-20T14:47:05.463Z,8.18
2022-10-20T14:49:35.488Z,8.18
2022-10-20T14:52:04.753Z,6.00
2022-10-20T14:57:10.248Z,4.07
2022-10-20T14:59:59.310Z,5.15
2022-10-20T15:02:28.859Z,4.93
2022-10-20T15:04:55.722Z,3.75
2022-10-20T15:07:33.510Z,3.80
2022-10-20T15:10:08.665Z,6.53
2022-10-20T15:12:40.665Z,9.35
2022-10-20T15:15:21.520Z,13.50
2022-10-20T15:17:51.643Z,12.75
2022-10-20T15:20:33.810Z,13.05
2022-10-20T15:23:13.881Z,11.27
2022-10-20T15:25:59.414Z,10.07
2022-10-20T15:28:32.545Z,9.32
2022-10-20T15:31:00.262Z,8.05
2022-10-20T15:33:27.314Z,9.18
2022-10-20T15:35:55.230Z,11.52
2022-10-20T15:38:22.147Z,12.30
2022-10-20T15:40:49.125Z,13.25
2022-10-20T15:43:17.631Z,11.75
2022-10-20T15:45:47.972Z,14.80
2022-10-20T15:48:15.008Z,21.77
2022-10-20T15:50:42.056Z,24.27
2022-10-20T15:53:11.281Z,25.75
2022-10-20T15:55:41.845Z,17.23
2022-10-20T15:58:08.986Z,22.33
2022-10-20T16:00:36.438Z,20.25
2022-10-20T16:03:03.864Z,19.77
2022-10-20T16:05:30.747Z,18.58
2022-10-20T16:07:57.614Z,20.50
2022-10-20T16:10:26.362Z,14.80
2022-10-20T16:12:53.204Z,10.55
2022-10-20T16:15:20.192Z,10.73
2022-10-20T16:17:47.261Z,11.07
2022-10-20T16:20:15.039Z,8.50
2022-10-20T16:22:41.867Z,8.07
2022-10-20T16:25:09.234Z,9.00
2022-10-20T16:27:36.434Z,9.00
2022-10-20T16:30:04.903Z,10.88
2022-10-20T16:32:34.594Z,8.45
2022-10-20T16:35:04.281Z,9.52
2022-10-20T16:37:32.205Z,6.40
2022-10-20T16:39:59.805Z,8.13
2022-10-20T16:42:27.679Z,8.65
2022-10-20T16:44:54.560Z,8.57
2022-10-20T16:47:21.515Z,7.75
2022-10-20T16:49:48.423Z,7.53
2022-10-20T16:52:15.288Z,7.37
2022-10-20T16:57:14.080Z,10.55
2022-10-20T16:59:42.641Z,13.27
2022-10-20T17:02:11.555Z,13.07
2022-10-20T17:04:38.580Z,11.07
2022-10-20T17:07:05.877Z,11.00
2022-10-20T17:09:32.714Z,14.20
2022-10-20T17:11:59.578Z,17.00
2022-10-20T17:14:26.530Z,21.08
2022-10-20T17:16:53.435Z,23.65
2022-10-20T17:19:20.265Z,27.42
2022-10-20T17:21:47.080Z,22.02
2022-10-20T17:24:14.028Z,25.10
2022-10-20T17:26:41.769Z,21.30
2022-10-20T17:29:09.656Z,19.48
2022-10-20T17:31:38.393Z,17.98
2022-10-20T17:34:05.531Z,18.02
2022-10-20T17:36:32.888Z,15.02
2022-10-20T17:39:06.247Z,14.65
2022-10-20T17:41:33.541Z,11.27
2022-10-20T17:44:04.813Z,13.32
2022-10-20T17:46:32.123Z,9.75
2022-10-20T17:49:01.694Z,16.27
2022-10-20T17:51:31.962Z,20.12
2022-10-20T17:54:01.546Z,25.90
2022-10-20T17:56:36.369Z,27.75
2022-10-20T17:59:05.560Z,22.75
2022-10-20T18:01:38.066Z,24.37
2022-10-20T18:04:08.165Z,24.80
2022-10-20T18:06:35.951Z,28.25
2022-10-20T18:09:05.999Z,25.75
2022-10-20T18:11:34.803Z,25.45
2022-10-20T18:14:02.000Z,26.45
2022-10-20T18:16:30.829Z,25.05
2022-10-20T18:21:31.511Z,26.80
2022-10-20T18:24:02.450Z,27.20
2022-10-20T18:26:30.901Z,17.23
2022-10-20T18:28:58.272Z,12.25
2022-10-20T18:31:27.581Z,10.93
2022-10-20T18:34:06.673Z,10.80
2022-10-20T18:36:36.951Z,12.35
2022-10-20T18:39:07.637Z,17.73
2022-10-20T18:41:38.274Z,19.60
2022-10-20T18:44:08.325Z,20.30
2022-10-20T18:46:35.270Z,22.08
2022-10-20T18:49:04.331Z,20.23
2022-10-20T18:51:31.827Z,20.37
2022-10-20T18:54:00.012Z,21.77
2022-10-20T18:56:29.435Z,23.83
2022-10-20T18:59:01.583Z,26.05
2022-10-20T19:01:30.973Z,26.05
2022-10-20T19:03:59.000Z,25.50
2022-10-20T19:06:37.268Z,26.40
2022-10-20T19:09:06.771Z,26.80
2022-10-20T19:11:37.024Z,23.90
2022-10-20T19:14:04.053Z,26.65
2022-10-20T19:16:32.815Z,29.08
2022-10-20T19:19:01.287Z,25.85
2022-10-20T19:21:29.542Z,24.10
2022-10-20T19:24:06.823Z,25.80
2022-10-20T19:29:08.311Z,17.37
2022-10-20T19:31:38.296Z,15.77
2022-10-20T19:34:11.336Z,17.15
2022-10-20T19:36:40.342Z,18.00
2022-10-20T19:39:08.972Z,21.20
2022-10-20T19:41:35.879Z,22.40
2022-10-20T19:44:03.387Z,24.50
2022-10-20T19:46:30.255Z,27.60
2022-10-20T19:48:57.746Z,27.50
2022-10-20T19:51:24.821Z,33.83
2022-10-20T19:53:51.918Z,32.78
2022-10-20T19:56:18.799Z,32.55
2022-10-20T19:58:46.807Z,35.25
2022-10-20T20:01:13.943Z,37.65
2022-10-20T20:03:41.018Z,33.92
2022-10-20T20:06:17.400Z,18.42
2022-10-20T20:08:45.846Z,12.33
2022-10-20T20:11:21.426Z,18.42
2022-10-20T20:13:48.274Z,33.67
2022-10-20T20:18:41.802Z,29.10
2022-10-20T20:21:08.655Z,26.52
2022-10-20T20:23:47.557Z,24.05
2022-10-20T20:26:21.488Z,20.58
2022-10-20T20:28:48.635Z,15.63
2022-10-20T20:31:15.509Z,20.85
2022-10-20T20:33:42.429Z,22.80
2022-10-20T20:36:09.853Z,17.40
2022-10-20T20:38:38.432Z,20.48
2022-10-20T20:41:07.205Z,13.73
2022-10-20T20:43:37.468Z,8.98
2022-10-20T20:46:08.841Z,8.00
2022-10-20T20:48:36.408Z,9.43
2022-10-20T20:51:03.837Z,12.13
2022-10-20T20:53:31.301Z,8.57
2022-10-20T20:56:00.079Z,7.62
2022-10-20T20:58:28.432Z,8.38
2022-10-20T21:01:22.642Z,8.27
2022-10-20T21:03:56.449Z,7.62
2022-10-20T21:06:33.300Z,7.00
2022-10-20T21:09:06.960Z,6.43
2022-10-20T21:11:33.879Z,6.78
2022-10-20T21:14:00.921Z,8.35
2022-10-20T21:16:35.117Z,9.82
2022-10-20T21:19:04.607Z,7.65
2022-10-20T21:21:39.121Z,6.00
2022-10-20T21:24:06.636Z,5.60
2022-10-20T21:26:33.587Z,5.68
2022-10-20T21:29:00.583Z,5.40
2022-10-20T21:31:28.766Z,5.15
2022-10-20T21:33:57.590Z,4.90
2022-10-20T21:36:25.389Z,4.62
2022-10-20T21:38:53.071Z,4.60
2022-10-20T21:41:37.613Z,4.22
2022-10-20T21:44:06.722Z,3.85
2022-10-20T21:46:36.217Z,4.25
2022-10-20T21:49:05.495Z,4.45
2022-10-20T21:51:39.841Z,4.57
2022-10-20T21:54:08.876Z,4.80
2022-10-20T21:56:37.471Z,4.75
2022-10-20T21:59:05.406Z,4.00
2022-10-20T22:01:32.495Z,4.75
2022-10-20T22:03:59.459Z,4.10
2022-10-20T22:06:27.771Z,4.03
2022-10-20T22:08:57.550Z,5.32
2022-10-20T22:11:30.771Z,5.05
2022-10-20T22:13:58.022Z,4.43
2022-10-20T22:16:27.688Z,4.68
2022-10-20T22:19:13.961Z,4.90
2022-10-20T22:21:42.624Z,5.05
2022-10-20T22:24:09.787Z,4.20
2022-10-20T22:26:37.045Z,4.57
2022-10-20T22:29:05.210Z,5.30
2022-10-20T22:31:32.133Z,4.82
2022-10-20T22:33:59.845Z,4.97
2022-10-20T22:36:27.495Z,4.82
2022-10-20T22:38:54.402Z,4.43
2022-10-20T22:41:21.542Z,4.70
2022-10-20T22:43:48.624Z,4.87
2022-10-20T22:46:18.598Z,5.05
2022-10-20T22:48:46.471Z,5.55
2022-10-20T22:51:13.437Z,5.43
2022-10-20T22:53:40.756Z,4.95
2022-10-20T22:56:19.408Z,5.10
2022-10-20T22:58:47.039Z,4.50
2022-10-20T23:01:16.778Z,4.18
2022-10-20T23:03:44.806Z,4.20
2022-10-20T23:06:29.648Z,4.28
2022-10-20T23:08:56.621Z,4.28
2022-10-20T23:11:23.967Z,4.00
2022-10-20T23:13:51.339Z,4.50
2022-10-20T23:16:19.577Z,5.05
2022-10-20T23:18:46.745Z,4.37
2022-10-20T23:21:14.414Z,4.50
2022-10-20T23:23:41.582Z,4.20
2022-10-20T23:26:09.254Z,4.28
2022-10-20T23:28:36.936Z,4.80
2022-10-20T23:31:18.894Z,5.60
2022-10-20T23:33:47.045Z,5.25
2022-10-20T23:36:14.949Z,6.07
2022-10-20T23:38:42.803Z,6.10
2022-10-20T23:41:10.228Z,5.90
2022-10-20T23:46:09.631Z,5.22
2022-10-20T23:48:36.629Z,5.78
2022-10-20T23:51:03.697Z,4.90
2022-10-20T23:53:30.977Z,5.00
2022-10-20T23:55:57.803Z,4.35
